createdAt,value
2019-03-31T00:01:41.809Z,7.50
2019-03-31T00:04:13.144Z,8.00
2019-03-31T00:06:42.780Z,6.70
2019-03-31T00:09:12.426Z,7.37
2019-03-31T00:11:44.265Z,7.30
2019-03-31T00:14:15.326Z,7.30
2019-03-31T00:16:47.160Z,6.93
2019-03-31T00:19:16.868Z,7.83
2019-03-31T00:21:46.434Z,8.83
2019-03-31T00:24:17.469Z,9.07
2019-03-31T00:26:49.262Z,8.17
2019-03-31T00:29:18.976Z,7.90
2019-03-31T00:31:48.633Z,8.07
2019-03-31T00:34:19.578Z,8.20
2019-03-31T00:36:49.246Z,7.87
2019-03-31T00:39:19.007Z,7.53
2019-03-31T00:41:48.639Z,7.63
2019-03-31T00:44:18.514Z,7.77
2019-03-31T00:46:48.085Z,7.67
2019-03-31T00:49:17.738Z,6.87
2019-03-31T00:51:47.373Z,7.20
2019-03-31T00:54:17.508Z,7.63
2019-03-31T00:56:47.555Z,6.80
2019-03-31T00:59:17.296Z,7.93
2019-03-31T01:01:57.877Z,7.10
2019-03-31T01:04:29.904Z,8.20
2019-03-31T01:06:59.668Z,7.70
2019-03-31T01:09:31.451Z,7.10
2019-03-31T01:12:03.393Z,8.90
2019-03-31T01:14:34.978Z,8.23
2019-03-31T01:17:06.234Z,8.50
2019-03-31T01:19:35.927Z,9.27
2019-03-31T01:22:05.628Z,9.43
2019-03-31T01:24:36.853Z,8.30
2019-03-31T01:27:07.007Z,8.23
2019-03-31T01:29:36.711Z,8.30
2019-03-31T01:32:06.477Z,8.90
2019-03-31T01:34:36.139Z,8.43
2019-03-31T01:37:06.358Z,9.17
2019-03-31T01:39:36.909Z,9.43
2019-03-31T01:42:06.471Z,8.50
2019-03-31T01:44:36.213Z,8.80
2019-03-31T01:47:06.508Z,9.27
2019-03-31T01:49:37.040Z,8.57
2019-03-31T01:52:07.076Z,8.50
2019-03-31T01:54:36.905Z,9.30
2019-03-31T01:57:06.699Z,8.53
2019-03-31T01:59:39.422Z,8.17
2019-03-31T02:02:12.350Z,9.00
2019-03-31T02:04:43.572Z,8.97
2019-03-31T02:07:13.574Z,8.43
2019-03-31T02:09:43.244Z,8.63
2019-03-31T02:12:13.627Z,8.43
2019-03-31T02:14:44.399Z,7.80
2019-03-31T02:17:24.454Z,8.60
2019-03-31T02:19:54.188Z,7.43
2019-03-31T02:22:23.842Z,7.53
2019-03-31T02:24:53.498Z,6.97
2019-03-31T02:27:24.648Z,6.60
2019-03-31T02:29:54.211Z,7.23
2019-03-31T02:32:24.955Z,7.03
2019-03-31T02:34:58.208Z,7.17
2019-03-31T02:37:28.875Z,7.10
2019-03-31T02:39:58.687Z,7.03
2019-03-31T02:42:28.458Z,7.70
2019-03-31T02:44:58.175Z,7.27
2019-03-31T02:47:28.157Z,7.60
2019-03-31T02:49:57.825Z,8.13
2019-03-31T02:52:27.767Z,7.37
2019-03-31T02:54:57.580Z,7.20
2019-03-31T02:57:28.677Z,7.97
2019-03-31T02:59:58.992Z,8.57
2019-03-31T03:02:41.681Z,8.07
2019-03-31T03:05:17.933Z,8.33
2019-03-31T03:07:35.770Z,7.00
2019-03-31T03:10:05.515Z,7.40
2019-03-31T03:12:35.333Z,7.20
2019-03-31T03:15:05.420Z,6.83
2019-03-31T03:17:37.613Z,7.67
2019-03-31T03:20:07.813Z,7.63
2019-03-31T03:22:37.405Z,7.23
2019-03-31T03:25:07.189Z,7.57
2019-03-31T03:27:36.831Z,6.90
2019-03-31T03:30:06.911Z,7.40
2019-03-31T03:32:36.645Z,6.87
2019-03-31T03:35:06.332Z,7.13
2019-03-31T03:37:35.925Z,7.23
2019-03-31T03:40:05.965Z,8.47
2019-03-31T03:42:35.612Z,7.83
2019-03-31T03:45:05.336Z,8.30
2019-03-31T03:47:35.021Z,8.60
2019-03-31T03:50:04.823Z,8.73
2019-03-31T03:52:34.634Z,8.27
2019-03-31T03:55:04.267Z,8.43
2019-03-31T03:57:36.136Z,7.97
2019-03-31T04:00:06.156Z,9.30
2019-03-31T04:02:35.817Z,8.47
2019-03-31T04:05:05.707Z,8.80
2019-03-31T04:07:36.721Z,8.33
2019-03-31T04:10:09.924Z,8.20
2019-03-31T04:12:39.720Z,8.20
2019-03-31T04:15:09.282Z,9.23
2019-03-31T04:17:38.969Z,7.73
2019-03-31T04:20:08.551Z,8.03
2019-03-31T04:22:38.231Z,9.03
2019-03-31T04:25:07.819Z,8.73
2019-03-31T04:27:39.680Z,8.90
2019-03-31T04:30:09.293Z,8.90
2019-03-31T04:32:39.209Z,9.50
2019-03-31T04:35:08.807Z,9.50
2019-03-31T04:37:38.409Z,9.27
2019-03-31T04:40:08.203Z,9.03
2019-03-31T04:42:37.758Z,9.23
2019-03-31T04:45:07.405Z,9.03
2019-03-31T04:47:37.088Z,8.97
2019-03-31T04:50:06.725Z,9.70
2019-03-31T04:52:36.458Z,9.03
2019-03-31T04:55:06.120Z,9.53
2019-03-31T04:57:35.790Z,9.70
2019-03-31T05:00:05.644Z,8.83
2019-03-31T05:02:36.051Z,8.43
2019-03-31T05:05:05.666Z,8.17
2019-03-31T05:07:35.323Z,9.63
2019-03-31T05:10:05.349Z,9.20
2019-03-31T05:12:35.349Z,8.33
2019-03-31T05:15:04.937Z,8.60
2019-03-31T05:17:35.847Z,8.23
2019-03-31T05:20:05.896Z,8.20
2019-03-31T05:22:35.642Z,7.93
2019-03-31T05:25:06.855Z,8.10
2019-03-31T05:27:38.875Z,8.60
2019-03-31T05:30:08.494Z,7.83
2019-03-31T05:32:38.107Z,7.90
2019-03-31T05:35:09.056Z,8.27
2019-03-31T05:37:50.169Z,7.90
2019-03-31T05:40:09.919Z,7.23
2019-03-31T05:42:39.539Z,9.13
2019-03-31T05:45:11.851Z,8.33
2019-03-31T05:47:41.454Z,7.80
2019-03-31T05:50:11.140Z,7.47
2019-03-31T05:52:40.880Z,7.13
2019-03-31T05:55:14.879Z,9.10
2019-03-31T05:57:45.042Z,7.10
2019-03-31T06:00:17.908Z,7.47
2019-03-31T06:02:47.860Z,7.50
2019-03-31T06:05:19.308Z,7.87
2019-03-31T06:07:48.950Z,7.37
2019-03-31T06:10:18.851Z,8.10
2019-03-31T06:12:48.516Z,6.93
2019-03-31T06:15:19.410Z,7.83
2019-03-31T06:17:48.987Z,7.13
2019-03-31T06:20:18.687Z,6.53
2019-03-31T06:22:48.321Z,6.70
2019-03-31T06:25:17.942Z,7.53
2019-03-31T06:27:49.888Z,6.53
2019-03-31T06:30:19.522Z,7.03
2019-03-31T06:32:49.210Z,7.47
2019-03-31T06:35:19.774Z,7.03
2019-03-31T06:37:49.400Z,7.80
2019-03-31T06:40:18.961Z,7.50
2019-03-31T06:42:48.583Z,7.53
2019-03-31T06:45:18.203Z,7.70
2019-03-31T06:47:48.059Z,8.10
2019-03-31T06:50:17.933Z,7.77
2019-03-31T06:52:49.029Z,7.40
2019-03-31T06:55:19.435Z,8.17
2019-03-31T06:57:51.331Z,8.33
2019-03-31T07:00:21.268Z,7.47
2019-03-31T07:02:50.971Z,7.63
2019-03-31T07:05:21.610Z,7.27
2019-03-31T07:07:51.281Z,7.27
2019-03-31T07:10:21.024Z,6.97
2019-03-31T07:12:50.664Z,6.53
2019-03-31T07:15:20.256Z,5.80
2019-03-31T07:17:50.909Z,6.00
2019-03-31T07:20:20.550Z,5.40
2019-03-31T07:22:50.180Z,5.83
2019-03-31T07:25:19.789Z,5.33
2019-03-31T07:27:49.364Z,5.70
2019-03-31T07:30:21.343Z,5.13
2019-03-31T07:32:50.918Z,5.40
2019-03-31T07:35:21.752Z,5.17
2019-03-31T07:37:51.354Z,5.07
2019-03-31T07:40:21.187Z,5.03
2019-03-31T07:42:51.357Z,5.43
2019-03-31T07:45:22.531Z,5.63
2019-03-31T07:47:52.129Z,5.57
2019-03-31T07:50:22.482Z,5.07
2019-03-31T07:52:52.207Z,5.40
2019-03-31T07:55:22.226Z,5.20
2019-03-31T07:57:54.470Z,5.23
2019-03-31T08:00:23.473Z,5.50
2019-03-31T08:02:54.260Z,5.77
2019-03-31T08:05:32.828Z,5.63
2019-03-31T08:07:57.568Z,5.80
2019-03-31T08:10:27.157Z,5.53
2019-03-31T08:12:56.854Z,5.20
2019-03-31T08:15:28.114Z,5.27
2019-03-31T08:18:00.053Z,5.40
2019-03-31T08:20:29.803Z,6.00
2019-03-31T08:22:59.352Z,6.07
2019-03-31T08:25:32.437Z,6.40
2019-03-31T08:28:02.147Z,6.37
2019-03-31T08:30:31.794Z,6.40
2019-03-31T08:33:01.419Z,6.27
2019-03-31T08:35:46.277Z,5.70
2019-03-31T08:38:05.812Z,5.73
2019-03-31T08:40:35.544Z,6.27
2019-03-31T08:43:07.415Z,8.80
2019-03-31T08:45:38.110Z,15.10
2019-03-31T08:48:07.766Z,8.03
2019-03-31T08:50:37.368Z,7.70
2019-03-31T08:53:07.187Z,17.37
2019-03-31T08:55:37.106Z,7.67
2019-03-31T08:58:06.849Z,7.07
2019-03-31T09:00:45.159Z,6.70
2019-03-31T09:03:14.791Z,6.47
2019-03-31T09:05:45.807Z,7.43
2019-03-31T09:08:15.363Z,6.47
2019-03-31T09:10:45.133Z,7.13
2019-03-31T09:13:14.717Z,7.27
2019-03-31T09:15:44.370Z,7.30
2019-03-31T09:18:14.020Z,7.43
2019-03-31T09:20:43.632Z,7.60
2019-03-31T09:23:16.968Z,8.80
2019-03-31T09:25:47.916Z,8.60
2019-03-31T09:28:17.631Z,8.77
2019-03-31T09:30:47.244Z,8.70
2019-03-31T09:33:16.854Z,9.07
2019-03-31T09:35:46.513Z,9.03
2019-03-31T09:38:18.348Z,9.23
2019-03-31T09:40:47.906Z,10.40
2019-03-31T09:43:18.844Z,9.53
2019-03-31T09:45:49.519Z,9.77
2019-03-31T09:48:19.097Z,9.00
2019-03-31T09:50:48.800Z,8.70
2019-03-31T09:53:18.390Z,9.33
2019-03-31T09:55:48.205Z,9.03
2019-03-31T09:58:17.809Z,8.77
2019-03-31T10:00:49.012Z,8.63
2019-03-31T10:03:18.766Z,8.37
2019-03-31T10:05:48.516Z,8.23
2019-03-31T10:08:21.767Z,7.67
2019-03-31T10:10:51.373Z,9.20
2019-03-31T10:13:20.985Z,8.50
2019-03-31T10:15:52.070Z,8.37
2019-03-31T10:18:21.661Z,8.20
2019-03-31T10:20:51.282Z,7.03
2019-03-31T10:23:20.881Z,5.90
2019-03-31T10:25:52.778Z,5.73
2019-03-31T10:28:22.370Z,6.27
2019-03-31T10:30:51.993Z,6.43
2019-03-31T10:33:21.561Z,5.37
2019-03-31T10:35:52.410Z,5.27
2019-03-31T10:38:22.121Z,4.97
2019-03-31T10:40:51.773Z,4.63
2019-03-31T10:43:21.366Z,4.93
2019-03-31T10:45:51.004Z,4.93
2019-03-31T10:48:21.385Z,4.50
2019-03-31T10:50:52.134Z,4.30
2019-03-31T10:53:21.733Z,3.63
2019-03-31T10:55:51.784Z,4.60
2019-03-31T10:58:21.423Z,4.20
2019-03-31T11:00:51.044Z,4.43
2019-03-31T11:03:20.622Z,4.40
2019-03-31T11:05:50.189Z,4.50
2019-03-31T11:08:19.845Z,4.40
2019-03-31T11:10:49.479Z,5.07
2019-03-31T11:13:19.058Z,5.07
2019-03-31T11:15:48.717Z,7.13
2019-03-31T11:18:18.256Z,5.80
2019-03-31T11:20:48.083Z,5.33
2019-03-31T11:23:22.845Z,5.83
2019-03-31T11:25:53.892Z,5.27
2019-03-31T11:28:23.633Z,5.40
2019-03-31T11:30:53.306Z,4.67
2019-03-31T11:33:22.897Z,5.17
2019-03-31T11:35:52.649Z,4.00
2019-03-31T11:38:22.182Z,4.60
2019-03-31T11:40:51.758Z,5.47
2019-03-31T11:43:21.323Z,5.30
2019-03-31T11:45:51.135Z,4.37
2019-03-31T11:48:20.748Z,4.77
2019-03-31T11:50:50.551Z,4.57
2019-03-31T11:53:20.312Z,4.80
2019-03-31T11:55:52.157Z,4.30
2019-03-31T11:58:25.089Z,4.30
2019-03-31T12:00:56.590Z,4.53
2019-03-31T12:03:26.199Z,4.50
2019-03-31T12:05:57.169Z,4.00
2019-03-31T12:08:26.762Z,3.87
2019-03-31T12:10:56.385Z,4.43
2019-03-31T12:13:27.016Z,4.07
2019-03-31T12:15:58.200Z,4.50
2019-03-31T12:18:29.321Z,4.73
2019-03-31T12:20:58.988Z,4.13
2019-03-31T12:23:29.918Z,4.27
2019-03-31T12:26:00.637Z,5.07
2019-03-31T12:28:30.356Z,4.87
2019-03-31T12:30:59.964Z,4.00
2019-03-31T12:33:29.480Z,4.63
2019-03-31T12:35:59.061Z,4.27
2019-03-31T12:38:28.607Z,4.90
2019-03-31T12:40:59.066Z,4.40
2019-03-31T12:43:28.627Z,4.00
2019-03-31T12:45:58.231Z,4.00
2019-03-31T12:48:27.789Z,3.87
2019-03-31T12:50:57.503Z,5.00
2019-03-31T12:53:27.074Z,6.10
2019-03-31T12:56:00.484Z,4.00
2019-03-31T12:58:28.511Z,4.53
2019-03-31T13:00:58.168Z,4.80
2019-03-31T13:03:27.780Z,7.27
2019-03-31T13:06:02.260Z,6.60
2019-03-31T13:08:33.509Z,6.73
2019-03-31T13:11:03.321Z,6.43
2019-03-31T13:13:32.926Z,6.20
2019-03-31T13:16:04.090Z,5.93
2019-03-31T13:18:33.732Z,6.33
2019-03-31T13:21:03.338Z,6.23
2019-03-31T13:23:32.924Z,5.93
2019-03-31T13:26:02.522Z,7.17
2019-03-31T13:28:34.304Z,6.13
2019-03-31T13:31:03.970Z,5.93
2019-03-31T13:33:35.113Z,6.20
2019-03-31T13:36:06.032Z,5.37
2019-03-31T13:38:35.805Z,5.90
2019-03-31T13:41:05.384Z,6.13
2019-03-31T13:43:35.037Z,5.77
2019-03-31T13:46:04.687Z,6.13
2019-03-31T13:48:34.293Z,5.40
2019-03-31T13:51:03.886Z,5.77
2019-03-31T13:53:33.504Z,5.57
2019-03-31T13:56:03.274Z,5.87
2019-03-31T13:58:33.603Z,5.27
2019-03-31T14:01:03.839Z,4.73
2019-03-31T14:03:33.537Z,4.97
2019-03-31T14:06:03.123Z,4.90
2019-03-31T14:08:32.842Z,4.67
2019-03-31T14:11:04.069Z,4.70
2019-03-31T14:13:35.471Z,4.83
2019-03-31T14:16:05.386Z,4.87
2019-03-31T14:18:35.032Z,5.90
2019-03-31T14:21:04.619Z,5.07
2019-03-31T14:23:35.473Z,4.53
2019-03-31T14:26:05.008Z,5.23
2019-03-31T14:28:34.569Z,5.00
2019-03-31T14:31:09.787Z,5.23
2019-03-31T14:33:44.652Z,4.90
2019-03-31T14:36:14.250Z,4.63
2019-03-31T14:38:43.916Z,4.63
2019-03-31T14:41:13.514Z,5.30
2019-03-31T14:43:44.414Z,4.97
2019-03-31T14:46:13.998Z,4.67
2019-03-31T14:48:43.759Z,4.80
2019-03-31T14:51:13.367Z,5.37
2019-03-31T14:53:43.059Z,5.30
2019-03-31T14:56:12.862Z,6.40
2019-03-31T14:58:43.081Z,5.63
2019-03-31T15:01:12.669Z,5.43
2019-03-31T15:03:42.360Z,5.20
2019-03-31T15:06:14.319Z,5.30
2019-03-31T15:08:54.296Z,5.90
2019-03-31T15:11:15.386Z,5.37
2019-03-31T15:13:48.008Z,5.67
2019-03-31T15:16:17.652Z,6.40
2019-03-31T15:18:47.364Z,5.47
2019-03-31T15:21:16.946Z,5.17
2019-03-31T15:23:51.421Z,5.50
2019-03-31T15:26:23.420Z,5.73
2019-03-31T15:28:53.129Z,5.10
2019-03-31T15:31:22.730Z,5.70
2019-03-31T15:33:52.558Z,5.37
2019-03-31T15:36:22.132Z,5.57
2019-03-31T15:38:51.791Z,5.47
2019-03-31T15:41:21.643Z,5.57
2019-03-31T15:43:51.250Z,6.17
2019-03-31T15:46:20.846Z,5.97
2019-03-31T15:49:01.728Z,6.00
2019-03-31T15:51:31.320Z,5.57
2019-03-31T15:54:01.970Z,5.70
2019-03-31T15:56:33.297Z,10.30
2019-03-31T15:59:06.597Z,9.17
2019-03-31T16:01:36.172Z,8.60
2019-03-31T16:04:09.231Z,7.50
2019-03-31T16:06:38.845Z,7.13
2019-03-31T16:09:22.391Z,6.93
2019-03-31T16:11:52.870Z,7.27
2019-03-31T16:14:14.955Z,6.87
2019-03-31T16:16:44.243Z,7.77
2019-03-31T16:19:13.387Z,7.80
2019-03-31T16:21:44.175Z,8.20
2019-03-31T16:24:14.700Z,9.17
2019-03-31T16:26:43.784Z,8.77
2019-03-31T16:29:12.901Z,6.43
2019-03-31T16:31:41.983Z,6.93
2019-03-31T16:34:11.035Z,6.80
2019-03-31T16:36:41.327Z,6.87
2019-03-31T16:39:10.654Z,6.73
2019-03-31T16:41:39.749Z,6.60
2019-03-31T16:44:08.854Z,8.13
2019-03-31T16:46:39.918Z,9.57
2019-03-31T16:49:08.801Z,9.20
2019-03-31T16:51:37.918Z,9.30
2019-03-31T16:54:07.086Z,10.80
2019-03-31T16:56:36.252Z,11.53
2019-03-31T16:59:05.325Z,11.47
2019-03-31T17:01:34.417Z,11.60
2019-03-31T17:04:03.605Z,11.97
2019-03-31T17:06:32.684Z,11.47
2019-03-31T17:09:06.339Z,12.23
2019-03-31T17:11:35.396Z,12.13
2019-03-31T17:14:06.496Z,11.40
2019-03-31T17:16:35.515Z,12.13
2019-03-31T17:19:04.572Z,12.23
2019-03-31T17:21:33.613Z,12.87
2019-03-31T17:24:02.744Z,11.43
2019-03-31T17:26:31.854Z,12.47
2019-03-31T17:29:02.896Z,16.07
2019-03-31T17:31:32.070Z,15.90
2019-03-31T17:34:01.190Z,14.73
2019-03-31T17:36:30.226Z,14.97
2019-03-31T17:38:59.309Z,16.23
2019-03-31T17:41:28.420Z,16.37
2019-03-31T17:43:57.589Z,17.87
2019-03-31T17:46:26.655Z,16.73
2019-03-31T17:48:57.327Z,18.40
2019-03-31T17:51:26.453Z,18.10
2019-03-31T17:53:55.697Z,18.80
2019-03-31T17:56:24.866Z,18.07
2019-03-31T17:58:54.048Z,17.57
2019-03-31T18:01:23.156Z,19.33
2019-03-31T18:03:52.248Z,18.23
2019-03-31T18:06:21.366Z,18.00
2019-03-31T18:08:50.437Z,17.60
2019-03-31T18:11:21.667Z,18.30
2019-03-31T18:13:50.838Z,16.90
2019-03-31T18:16:20.024Z,17.13
2019-03-31T18:18:49.110Z,17.27
2019-03-31T18:21:18.212Z,17.10
2019-03-31T18:23:47.522Z,17.70
2019-03-31T18:26:16.629Z,17.63
2019-03-31T18:28:47.456Z,16.97
2019-03-31T18:31:16.647Z,17.03
2019-03-31T18:33:48.071Z,17.07
2019-03-31T18:36:20.299Z,18.13
2019-03-31T18:38:54.688Z,17.83
2019-03-31T18:41:23.759Z,18.50
2019-03-31T18:43:54.749Z,18.80
2019-03-31T18:46:23.930Z,19.40
2019-03-31T18:48:53.047Z,19.10
2019-03-31T18:51:22.139Z,20.50
2019-03-31T18:54:10.958Z,20.40
2019-03-31T18:56:46.661Z,20.57
2019-03-31T18:59:46.677Z,20.47
2019-03-31T19:02:25.122Z,22.27
2019-03-31T19:05:13.428Z,22.37
2019-03-31T19:08:05.154Z,21.67
2019-03-31T19:10:50.077Z,23.13
2019-03-31T19:13:54.453Z,23.17
2019-03-31T19:16:29.969Z,23.40
2019-03-31T19:19:20.004Z,24.07
2019-03-31T19:22:04.658Z,23.90
2019-03-31T19:24:55.941Z,26.07
2019-03-31T19:27:42.873Z,24.53
2019-03-31T19:30:23.017Z,26.23
2019-03-31T19:33:24.481Z,25.47
2019-03-31T19:36:12.568Z,25.67
2019-03-31T19:38:53.694Z,25.33
2019-03-31T19:41:53.751Z,26.57
2019-03-31T19:44:33.870Z,26.40
2019-03-31T19:47:34.065Z,26.37
2019-03-31T19:50:28.384Z,27.90
2019-03-31T19:53:38.930Z,28.13
2019-03-31T19:56:17.736Z,26.57
2019-03-31T19:59:24.024Z,27.80
2019-03-31T20:02:10.623Z,27.93
2019-03-31T20:04:50.787Z,28.83
2019-03-31T20:07:41.585Z,28.07
2019-03-31T20:10:29.779Z,28.57
2019-03-31T20:13:16.872Z,28.87
2019-03-31T20:16:17.317Z,30.50
2019-03-31T20:19:05.544Z,30.47
2019-03-31T20:21:43.801Z,28.57
2019-03-31T20:24:30.789Z,27.93
2019-03-31T20:27:18.960Z,29.50
2019-03-31T20:30:10.093Z,30.53
2019-03-31T20:32:50.123Z,30.07
2019-03-31T20:35:38.663Z,30.03
2019-03-31T20:38:31.680Z,29.53
2019-03-31T20:41:26.209Z,30.47
2019-03-31T20:43:56.005Z,29.40
2019-03-31T20:46:37.015Z,30.87
2019-03-31T20:49:06.416Z,30.67
2019-03-31T20:51:35.908Z,29.37
2019-03-31T20:54:09.505Z,28.33
2019-03-31T20:56:41.674Z,27.47
2019-03-31T20:59:10.922Z,27.43
2019-03-31T21:01:40.282Z,26.73
2019-03-31T21:04:11.255Z,26.70
2019-03-31T21:06:40.335Z,25.53
2019-03-31T21:09:10.127Z,27.50
2019-03-31T21:11:39.701Z,25.27
2019-03-31T21:14:09.187Z,23.67
2019-03-31T21:16:40.133Z,23.73
2019-03-31T21:22:11.802Z,21.87
2019-03-31T21:24:40.836Z,22.47
2019-03-31T21:27:09.913Z,21.53
2019-03-31T21:29:39.085Z,19.73
2019-03-31T21:32:08.140Z,20.27
2019-03-31T21:34:37.224Z,19.83
2019-03-31T21:37:06.262Z,20.17
2019-03-31T21:39:35.343Z,20.10
2019-03-31T21:42:04.337Z,20.90
2019-03-31T21:44:33.475Z,18.57
2019-03-31T21:47:04.833Z,19.53
2019-03-31T21:49:36.125Z,20.03
2019-03-31T21:52:06.659Z,20.60
2019-03-31T21:54:35.758Z,19.03
2019-03-31T21:57:04.782Z,19.13
2019-03-31T21:59:33.859Z,19.57
2019-03-31T22:02:03.111Z,20.83
2019-03-31T22:04:32.447Z,18.90
2019-03-31T22:07:05.929Z,19.23
2019-03-31T22:09:35.231Z,20.57
2019-03-31T22:12:05.514Z,21.50
2019-03-31T22:14:34.532Z,20.13
2019-03-31T22:17:05.699Z,19.93
2019-03-31T22:19:35.350Z,20.57
2019-03-31T22:22:04.816Z,19.17
2019-03-31T22:24:34.021Z,18.73
2019-03-31T22:27:03.135Z,19.40
2019-03-31T22:29:32.512Z,18.77
2019-03-31T22:32:04.875Z,18.33
2019-03-31T22:34:34.055Z,18.47
2019-03-31T22:37:03.436Z,18.03
2019-03-31T22:39:32.527Z,17.47
2019-03-31T22:42:05.423Z,17.50
2019-03-31T22:44:34.668Z,18.00
2019-03-31T22:47:05.962Z,16.90
2019-03-31T22:49:35.092Z,16.77
2019-03-31T22:52:04.133Z,18.27
2019-03-31T22:54:33.244Z,16.80
2019-03-31T22:57:02.366Z,18.63
2019-03-31T22:59:31.456Z,15.90
2019-03-31T23:02:00.486Z,15.90
2019-03-31T23:04:29.589Z,21.57
2019-03-31T23:06:58.731Z,20.63
2019-03-31T23:09:27.809Z,15.90
2019-03-31T23:11:56.876Z,16.80
2019-03-31T23:14:26.822Z,16.93
2019-03-31T23:16:55.860Z,17.97
2019-03-31T23:19:24.937Z,18.10
2019-03-31T23:21:53.954Z,17.00
2019-03-31T23:24:23.139Z,16.37
2019-03-31T23:26:56.519Z,16.53
2019-03-31T23:29:25.613Z,16.47
2019-03-31T23:32:10.459Z,17.33
2019-03-31T23:34:42.548Z,16.70
2019-03-31T23:37:13.013Z,18.00
2019-03-31T23:39:42.062Z,16.50
2019-03-31T23:42:11.126Z,17.87
2019-03-31T23:44:40.245Z,18.37
2019-03-31T23:47:09.375Z,21.53
2019-03-31T23:49:38.515Z,17.30
2019-03-31T23:52:09.727Z,15.90
2019-03-31T23:54:38.947Z,17.60
2019-03-31T23:57:08.031Z,17.17
2019-03-31T23:59:37.540Z,16.83
